createdAt,value
2019-03-17T00:01:19.347Z,42.37
2019-03-17T00:03:50.047Z,42.33
2019-03-17T00:06:20.343Z,42.48
2019-03-17T00:08:51.183Z,42.51
2019-03-17T00:11:21.561Z,42.28
2019-03-17T00:13:51.895Z,42.54
2019-03-17T00:16:22.293Z,43.39
2019-03-17T00:18:52.989Z,43.42
2019-03-17T00:21:23.378Z,43.25
2019-03-17T00:23:53.896Z,42.61
2019-03-17T00:26:24.238Z,42.55
2019-03-17T00:28:54.957Z,43.25
2019-03-17T00:31:25.617Z,43.48
2019-03-17T00:33:55.989Z,43.98
2019-03-17T00:36:26.699Z,44.13
2019-03-17T00:38:57.292Z,45.02
2019-03-17T00:41:27.607Z,44.15
2019-03-17T00:43:57.945Z,44.60
2019-03-17T00:46:28.628Z,45.39
2019-03-17T00:48:58.910Z,45.90
2019-03-17T00:51:29.253Z,45.96
2019-03-17T00:53:59.692Z,45.90
2019-03-17T00:56:30.332Z,46.38
2019-03-17T00:59:01.025Z,46.63
2019-03-17T01:01:31.346Z,48.00
2019-03-17T01:04:01.825Z,47.64
2019-03-17T01:06:32.546Z,48.37
2019-03-17T01:09:03.215Z,49.14
2019-03-17T01:11:33.734Z,50.14
2019-03-17T01:14:04.103Z,50.73
2019-03-17T01:16:34.494Z,50.19
2019-03-17T01:19:04.798Z,50.12
2019-03-17T01:21:35.525Z,50.61
2019-03-17T01:24:06.153Z,50.85
2019-03-17T01:26:36.774Z,51.60
2019-03-17T01:29:07.060Z,51.95
2019-03-17T01:31:38.470Z,53.48
2019-03-17T01:34:10.534Z,52.43
2019-03-17T01:36:40.860Z,55.32
2019-03-17T01:39:11.198Z,56.11
2019-03-17T01:41:41.798Z,55.38
2019-03-17T01:44:12.124Z,56.72
2019-03-17T01:46:42.469Z,56.34
2019-03-17T01:49:13.150Z,55.56
2019-03-17T01:51:43.801Z,55.05
2019-03-17T01:54:14.096Z,56.18
2019-03-17T01:56:44.779Z,55.52
2019-03-17T01:59:15.189Z,55.69
2019-03-17T02:01:45.473Z,56.04
2019-03-17T02:04:15.851Z,56.72
2019-03-17T02:06:46.586Z,56.70
2019-03-17T02:09:16.920Z,56.73
2019-03-17T02:11:47.265Z,56.45
2019-03-17T02:14:17.995Z,57.57
2019-03-17T02:16:48.282Z,57.09
2019-03-17T02:19:19.677Z,56.60
2019-03-17T02:21:50.342Z,57.64
2019-03-17T02:24:20.853Z,58.07
2019-03-17T02:26:51.127Z,58.66
2019-03-17T02:29:21.765Z,58.91
2019-03-17T02:31:52.143Z,57.98
2019-03-17T02:34:22.853Z,57.85
2019-03-17T02:36:53.139Z,58.09
2019-03-17T02:39:26.294Z,59.01
2019-03-17T02:41:55.982Z,58.57
2019-03-17T02:44:26.297Z,59.53
2019-03-17T02:46:56.636Z,59.33
2019-03-17T02:49:27.339Z,58.50
2019-03-17T02:51:57.970Z,58.91
2019-03-17T02:54:28.252Z,58.79
2019-03-17T02:56:58.934Z,59.69
2019-03-17T02:59:29.633Z,59.38
2019-03-17T03:02:00.091Z,61.78
2019-03-17T03:04:30.733Z,59.71
2019-03-17T03:07:01.058Z,59.38
2019-03-17T03:09:31.636Z,60.45
2019-03-17T03:12:02.158Z,59.79
2019-03-17T03:14:33.361Z,60.48
2019-03-17T03:17:04.082Z,60.69
2019-03-17T03:19:35.860Z,61.53
2019-03-17T03:22:06.198Z,60.46
2019-03-17T03:24:36.585Z,60.21
2019-03-17T03:27:07.204Z,60.29
2019-03-17T03:29:37.516Z,61.21
2019-03-17T03:32:08.077Z,61.85
2019-03-17T03:34:38.522Z,62.15
2019-03-17T03:37:09.014Z,62.44
2019-03-17T03:39:39.409Z,63.14
2019-03-17T03:42:09.685Z,63.36
2019-03-17T03:44:40.066Z,63.57
2019-03-17T03:47:10.781Z,62.81
2019-03-17T03:49:41.111Z,61.68
2019-03-17T03:52:11.441Z,62.31
2019-03-17T03:54:42.135Z,62.58
2019-03-17T03:57:12.422Z,62.13
2019-03-17T03:59:42.901Z,61.28
2019-03-17T04:02:13.634Z,59.47
2019-03-17T04:04:44.199Z,59.01
2019-03-17T04:07:14.887Z,58.36
2019-03-17T04:09:45.203Z,56.32
2019-03-17T04:12:15.483Z,55.42
2019-03-17T04:14:45.842Z,55.22
2019-03-17T04:17:16.165Z,54.48
2019-03-17T04:19:46.473Z,53.40
2019-03-17T04:22:17.040Z,53.49
2019-03-17T04:24:47.483Z,54.93
2019-03-17T04:27:17.931Z,53.97
2019-03-17T04:29:48.604Z,54.76
2019-03-17T04:32:19.358Z,53.04
2019-03-17T04:34:49.641Z,52.36
2019-03-17T04:37:20.319Z,52.72
2019-03-17T04:39:50.803Z,53.61
2019-03-17T04:42:21.207Z,52.91
2019-03-17T04:44:51.721Z,53.81
2019-03-17T04:47:22.029Z,53.37
2019-03-17T04:49:52.473Z,53.26
2019-03-17T04:55:47.658Z,54.51
2019-03-17T04:58:18.295Z,53.93
2019-03-17T05:00:48.952Z,55.00
2019-03-17T05:03:19.227Z,55.79
2019-03-17T05:05:49.876Z,55.59
2019-03-17T05:08:20.550Z,55.74
2019-03-17T05:10:52.500Z,56.38
2019-03-17T05:13:22.910Z,58.01
2019-03-17T05:15:53.239Z,58.50
2019-03-17T05:18:23.961Z,57.59
2019-03-17T05:20:54.549Z,57.66
2019-03-17T05:24:00.225Z,57.51
2019-03-17T05:26:30.888Z,57.56
2019-03-17T05:29:01.563Z,58.23
2019-03-17T05:31:31.832Z,59.11
2019-03-17T05:34:02.299Z,58.55
2019-03-17T05:36:32.898Z,57.98
2019-03-17T05:39:03.212Z,56.84
2019-03-17T05:41:33.497Z,57.65
2019-03-17T05:44:03.873Z,57.63
2019-03-17T05:46:34.527Z,57.31
2019-03-17T05:49:05.233Z,57.18
2019-03-17T05:51:35.552Z,56.49
2019-03-17T05:54:06.206Z,55.70
2019-03-17T05:56:37.287Z,55.42
2019-03-17T05:59:07.572Z,55.44
2019-03-17T06:01:37.853Z,55.48
2019-03-17T06:04:09.564Z,54.50
2019-03-17T06:06:40.057Z,53.00
2019-03-17T06:09:10.329Z,54.00
2019-03-17T06:11:40.964Z,53.90
2019-03-17T06:14:11.280Z,53.31
2019-03-17T06:16:41.613Z,52.44
2019-03-17T06:19:12.211Z,52.58
2019-03-17T06:21:42.894Z,52.68
2019-03-17T06:24:13.205Z,52.33
2019-03-17T06:26:43.647Z,51.80
2019-03-17T06:29:14.340Z,51.52
2019-03-17T06:31:45.646Z,51.79
2019-03-17T06:34:16.043Z,51.25
2019-03-17T06:36:46.686Z,50.54
2019-03-17T06:39:16.963Z,49.72
2019-03-17T06:41:48.262Z,48.72
2019-03-17T06:44:18.648Z,48.99
2019-03-17T06:46:48.945Z,48.54
2019-03-17T06:49:19.638Z,47.52
2019-03-17T06:51:50.098Z,47.17
2019-03-17T06:54:20.504Z,47.06
2019-03-17T06:56:51.252Z,46.85
2019-03-17T06:59:21.595Z,46.34
2019-03-17T07:01:51.901Z,46.04
2019-03-17T07:04:22.714Z,45.59
2019-03-17T07:06:53.007Z,45.28
2019-03-17T07:09:23.322Z,44.76
2019-03-17T07:11:53.971Z,43.99
2019-03-17T07:14:24.620Z,44.05
2019-03-17T07:16:54.928Z,43.49
2019-03-17T07:19:25.562Z,43.25
2019-03-17T07:21:55.905Z,43.21
2019-03-17T07:24:26.307Z,43.19
2019-03-17T07:26:56.671Z,43.38
2019-03-17T07:29:27.020Z,42.57
2019-03-17T07:31:57.682Z,41.46
2019-03-17T07:34:28.209Z,41.35
2019-03-17T07:36:58.492Z,41.14
2019-03-17T07:39:29.125Z,40.76
2019-03-17T07:41:59.494Z,40.28
2019-03-17T07:44:29.838Z,40.32
2019-03-17T07:47:00.562Z,39.01
2019-03-17T07:49:31.315Z,38.92
2019-03-17T07:52:01.613Z,38.49
2019-03-17T07:54:34.902Z,38.96
2019-03-17T07:57:04.120Z,37.77
2019-03-17T07:59:34.798Z,37.84
2019-03-17T08:02:05.364Z,37.97
2019-03-17T08:04:42.858Z,37.70
2019-03-17T08:07:08.030Z,37.41
2019-03-17T08:09:38.409Z,37.00
2019-03-17T08:12:09.720Z,37.35
2019-03-17T08:14:40.067Z,37.99
2019-03-17T08:17:10.614Z,37.70
2019-03-17T08:19:41.248Z,36.60
2019-03-17T08:22:11.569Z,37.36
2019-03-17T08:24:41.944Z,36.77
2019-03-17T08:27:12.731Z,35.79
2019-03-17T08:29:43.514Z,36.08
2019-03-17T08:32:13.802Z,35.86
2019-03-17T08:34:44.257Z,35.62
2019-03-17T08:37:14.992Z,34.96
2019-03-17T08:39:45.328Z,34.72
2019-03-17T08:42:15.676Z,34.34
2019-03-17T08:44:46.232Z,34.16
2019-03-17T08:47:16.542Z,33.96
2019-03-17T08:49:46.828Z,32.90
2019-03-17T08:52:17.557Z,32.55
2019-03-17T08:54:48.190Z,32.17
2019-03-17T08:57:19.027Z,32.17
2019-03-17T08:59:49.312Z,32.17
2019-03-17T09:02:19.654Z,32.14
2019-03-17T09:04:50.174Z,32.16
2019-03-17T09:07:20.520Z,31.67
2019-03-17T09:09:50.825Z,31.56
2019-03-17T09:12:22.621Z,31.15
2019-03-17T09:14:53.105Z,30.10
2019-03-17T09:17:23.374Z,29.23
2019-03-17T09:19:55.135Z,28.92
2019-03-17T09:22:25.845Z,27.93
2019-03-17T09:24:57.196Z,27.44
2019-03-17T09:27:27.899Z,27.06
2019-03-17T09:29:58.296Z,26.99
2019-03-17T09:32:28.966Z,26.60
2019-03-17T09:34:59.551Z,26.96
2019-03-17T09:37:29.926Z,26.96
2019-03-17T09:40:00.492Z,26.89
2019-03-17T09:42:31.078Z,26.70
2019-03-17T09:45:01.503Z,26.94
2019-03-17T09:47:31.911Z,26.67
2019-03-17T09:50:02.586Z,26.08
2019-03-17T09:52:32.905Z,26.15
2019-03-17T09:55:03.233Z,25.78
2019-03-17T09:57:33.897Z,25.78
2019-03-17T10:00:04.904Z,25.54
2019-03-17T10:02:35.548Z,25.42
2019-03-17T10:05:06.503Z,24.76
2019-03-17T10:07:37.297Z,24.56
2019-03-17T10:10:09.007Z,24.19
2019-03-17T10:12:39.297Z,23.73
2019-03-17T10:15:11.258Z,23.75
2019-03-17T10:17:41.947Z,24.27
2019-03-17T10:20:14.924Z,23.94
2019-03-17T10:22:45.274Z,23.75
2019-03-17T10:25:16.037Z,23.72
2019-03-17T10:27:46.511Z,23.74
2019-03-17T10:30:17.058Z,23.59
2019-03-17T10:32:48.067Z,23.17
2019-03-17T10:35:18.389Z,23.22
2019-03-17T10:37:48.714Z,23.70
2019-03-17T10:40:19.539Z,23.30
2019-03-17T10:42:49.922Z,23.08
2019-03-17T10:45:20.236Z,23.07
2019-03-17T10:47:50.644Z,23.36
2019-03-17T10:50:21.576Z,23.44
2019-03-17T10:52:51.982Z,23.43
2019-03-17T10:55:23.361Z,23.41
2019-03-17T10:57:54.057Z,22.44
2019-03-17T11:00:24.567Z,22.83
2019-03-17T11:02:55.660Z,23.03
2019-03-17T11:05:26.210Z,22.93
2019-03-17T11:07:56.825Z,22.96
2019-03-17T11:10:27.204Z,22.42
2019-03-17T11:12:57.522Z,22.25
2019-03-17T11:15:27.970Z,21.69
2019-03-17T11:17:59.520Z,22.62
2019-03-17T11:20:29.816Z,22.32
2019-03-17T11:23:00.180Z,21.98
2019-03-17T11:25:30.827Z,21.82
2019-03-17T11:28:01.138Z,21.77
2019-03-17T11:30:31.436Z,22.28
2019-03-17T11:33:02.117Z,22.18
2019-03-17T11:35:32.566Z,21.65
2019-03-17T11:38:03.173Z,21.66
2019-03-17T11:40:33.491Z,21.63
2019-03-17T11:43:03.839Z,21.34
2019-03-17T11:45:34.427Z,20.85
2019-03-17T11:48:04.760Z,20.75
2019-03-17T11:50:35.049Z,20.64
2019-03-17T11:53:05.990Z,20.97
2019-03-17T11:55:36.439Z,21.07
2019-03-17T11:58:06.843Z,20.79
2019-03-17T12:00:37.640Z,20.83
2019-03-17T12:03:08.272Z,20.99
2019-03-17T12:05:38.604Z,21.13
2019-03-17T12:08:09.668Z,20.72
2019-03-17T12:10:39.972Z,20.51
2019-03-17T12:13:10.604Z,20.60
2019-03-17T12:15:41.134Z,19.81
2019-03-17T12:18:11.463Z,19.72
2019-03-17T12:20:42.335Z,19.72
2019-03-17T12:23:12.988Z,19.36
2019-03-17T12:25:43.402Z,19.40
2019-03-17T12:28:14.896Z,19.51
2019-03-17T12:30:45.292Z,19.23
2019-03-17T12:33:15.587Z,19.54
2019-03-17T12:35:46.015Z,19.26
2019-03-17T12:38:16.791Z,19.10
2019-03-17T12:40:47.139Z,18.37
2019-03-17T12:43:17.866Z,18.40
2019-03-17T12:45:48.175Z,18.14
2019-03-17T12:48:18.810Z,18.11
2019-03-17T12:50:49.486Z,17.52
2019-03-17T12:53:19.760Z,17.97
2019-03-17T12:55:50.117Z,18.07
2019-03-17T12:58:20.727Z,17.99
2019-03-17T13:00:51.229Z,17.70
2019-03-17T13:03:21.595Z,17.29
2019-03-17T13:05:52.403Z,17.15
2019-03-17T13:08:22.759Z,16.50
2019-03-17T13:10:53.044Z,16.86
2019-03-17T13:13:23.725Z,17.52
2019-03-17T13:15:54.129Z,17.02
2019-03-17T13:18:24.798Z,17.22
2019-03-17T13:20:55.072Z,16.82
2019-03-17T13:23:25.394Z,16.54
2019-03-17T13:25:55.771Z,15.47
2019-03-17T13:28:26.188Z,16.13
2019-03-17T13:30:56.481Z,16.08
2019-03-17T13:33:27.156Z,15.44
2019-03-17T13:35:57.608Z,14.94
2019-03-17T13:38:27.934Z,15.09
2019-03-17T13:40:58.633Z,15.32
2019-03-17T13:43:29.351Z,14.99
2019-03-17T13:45:59.876Z,15.03
2019-03-17T13:48:42.894Z,15.59
2019-03-17T13:51:13.360Z,16.07
2019-03-17T13:56:12.820Z,15.30
2019-03-17T13:58:43.469Z,15.19
2019-03-17T14:01:14.060Z,15.13
2019-03-17T14:03:44.657Z,15.69
2019-03-17T14:06:15.396Z,15.90
2019-03-17T14:08:45.845Z,15.69
2019-03-17T14:11:17.466Z,15.10
2019-03-17T14:13:48.034Z,15.30
2019-03-17T14:16:18.724Z,14.90
2019-03-17T14:18:49.398Z,15.21
2019-03-17T14:21:19.841Z,15.18
2019-03-17T14:23:50.595Z,15.18
2019-03-17T14:26:20.955Z,14.80
2019-03-17T14:28:51.762Z,15.06
2019-03-17T14:31:22.433Z,14.68
2019-03-17T14:33:53.124Z,14.08
2019-03-17T14:36:23.940Z,14.25
2019-03-17T14:38:54.658Z,13.73
2019-03-17T14:41:25.383Z,13.25
2019-03-17T14:43:56.026Z,13.10
2019-03-17T14:46:26.817Z,13.43
2019-03-17T14:48:57.455Z,13.33
2019-03-17T14:51:27.903Z,13.41
2019-03-17T14:53:58.289Z,13.37
2019-03-17T14:56:28.892Z,13.82
2019-03-17T14:58:59.518Z,13.03
2019-03-17T15:01:30.249Z,13.14
2019-03-17T15:04:00.997Z,12.87
2019-03-17T15:06:31.757Z,13.26
2019-03-17T15:09:02.476Z,13.38
2019-03-17T15:11:33.150Z,12.85
2019-03-17T15:14:03.894Z,13.11
2019-03-17T15:16:36.960Z,12.34
2019-03-17T15:19:06.996Z,12.67
2019-03-17T15:21:37.378Z,12.62
2019-03-17T15:24:08.078Z,12.39
2019-03-17T15:26:38.687Z,12.17
2019-03-17T15:29:09.273Z,10.80
2019-03-17T15:31:39.958Z,10.71
2019-03-17T15:34:12.061Z,11.01
2019-03-17T15:36:43.694Z,10.61
2019-03-17T15:39:14.566Z,10.65
2019-03-17T15:41:46.269Z,10.70
2019-03-17T15:44:17.001Z,10.72
2019-03-17T15:46:47.756Z,10.92
2019-03-17T15:49:18.433Z,10.96
2019-03-17T15:51:48.835Z,10.89
2019-03-17T15:54:21.406Z,11.25
2019-03-17T15:56:51.831Z,11.20
2019-03-17T15:59:22.541Z,11.13
2019-03-17T16:01:54.234Z,11.72
2019-03-17T16:04:24.926Z,11.79
2019-03-17T16:06:55.604Z,12.15
2019-03-17T16:09:28.663Z,11.86
2019-03-17T16:11:58.771Z,12.40
2019-03-17T16:14:29.313Z,12.72
2019-03-17T16:16:59.974Z,12.66
2019-03-17T16:19:30.714Z,12.86
2019-03-17T16:22:01.186Z,13.35
2019-03-17T16:24:31.580Z,13.98
2019-03-17T16:27:02.525Z,14.28
2019-03-17T16:29:33.056Z,14.40
2019-03-17T16:32:03.769Z,15.73
2019-03-17T16:34:34.277Z,15.57
2019-03-17T16:37:05.199Z,16.31
2019-03-17T16:39:35.627Z,16.53
2019-03-17T16:42:06.518Z,17.61
2019-03-17T16:44:37.306Z,18.82
2019-03-17T16:47:08.062Z,18.86
2019-03-17T16:49:38.466Z,20.67
2019-03-17T16:52:09.067Z,21.48
2019-03-17T16:54:39.491Z,22.31
2019-03-17T16:57:10.187Z,22.43
2019-03-17T16:59:41.051Z,22.64
2019-03-17T17:02:11.719Z,23.02
2019-03-17T17:04:42.356Z,23.69
2019-03-17T17:07:13.409Z,24.01
2019-03-17T17:09:44.134Z,23.94
2019-03-17T17:12:14.830Z,24.11
2019-03-17T17:14:45.568Z,23.96
2019-03-17T17:17:16.024Z,25.04
2019-03-17T17:19:46.440Z,25.04
2019-03-17T17:22:17.120Z,25.98
2019-03-17T17:24:47.541Z,26.13
2019-03-17T17:27:20.490Z,27.08
2019-03-17T17:29:51.625Z,27.08
2019-03-17T17:32:22.488Z,27.49
2019-03-17T17:34:53.131Z,27.84
2019-03-17T17:37:24.325Z,28.42
2019-03-17T17:39:54.948Z,28.72
2019-03-17T17:42:25.407Z,29.08
2019-03-17T17:44:55.820Z,29.01
2019-03-17T17:47:27.759Z,29.32
2019-03-17T17:49:58.202Z,29.43
2019-03-17T17:52:28.577Z,29.35
2019-03-17T17:54:59.150Z,29.67
2019-03-17T17:57:29.878Z,29.64
2019-03-17T18:00:00.399Z,29.58
2019-03-17T18:02:31.209Z,29.85
2019-03-17T18:05:01.513Z,29.88
2019-03-17T18:07:32.203Z,30.11
2019-03-17T18:10:02.942Z,30.20
2019-03-17T18:12:33.287Z,30.57
2019-03-17T18:15:03.960Z,30.81
2019-03-17T18:17:34.593Z,31.17
2019-03-17T18:20:05.214Z,30.84
2019-03-17T18:22:35.640Z,30.84
2019-03-17T18:25:06.549Z,31.31
2019-03-17T18:27:36.880Z,31.33
2019-03-17T18:30:08.475Z,31.35
2019-03-17T18:32:39.135Z,31.47
2019-03-17T18:35:09.902Z,31.63
2019-03-17T18:37:40.723Z,32.05
2019-03-17T18:40:12.509Z,32.27
2019-03-17T18:42:43.371Z,32.53
2019-03-17T18:45:15.856Z,32.95
2019-03-17T18:47:46.213Z,32.79
2019-03-17T18:50:20.683Z,32.81
2019-03-17T18:52:48.845Z,33.08
2019-03-17T18:55:20.116Z,33.37
2019-03-17T18:57:50.720Z,33.67
2019-03-17T19:00:21.679Z,33.77
2019-03-17T19:02:52.117Z,33.93
2019-03-17T19:05:22.408Z,34.03
2019-03-17T19:07:53.376Z,34.19
2019-03-17T19:10:23.864Z,33.98
2019-03-17T19:12:54.205Z,34.07
2019-03-17T19:15:25.068Z,33.71
2019-03-17T19:17:55.841Z,33.82
2019-03-17T19:20:26.195Z,33.97
2019-03-17T19:22:56.591Z,34.02
2019-03-17T19:25:27.138Z,34.01
2019-03-17T19:27:57.823Z,33.83
2019-03-17T19:30:28.251Z,33.70
2019-03-17T19:32:58.993Z,34.07
2019-03-17T19:35:29.321Z,33.70
2019-03-17T19:37:59.631Z,33.65
2019-03-17T19:40:30.143Z,33.27
2019-03-17T19:43:00.899Z,32.81
2019-03-17T19:45:31.579Z,32.73
2019-03-17T19:48:02.047Z,32.81
2019-03-17T19:50:32.544Z,33.37
2019-03-17T19:53:03.384Z,33.17
2019-03-17T19:55:33.755Z,34.05
2019-03-17T19:58:04.088Z,33.07
2019-03-17T20:00:34.569Z,33.61
2019-03-17T20:03:04.899Z,33.05
2019-03-17T20:05:35.191Z,32.92
2019-03-17T20:08:05.844Z,33.08
2019-03-17T20:10:36.400Z,33.72
2019-03-17T20:13:11.807Z,33.90
2019-03-17T20:15:39.191Z,34.29
2019-03-17T20:18:09.540Z,34.30
2019-03-17T20:20:40.220Z,35.09
2019-03-17T20:23:10.508Z,35.06
2019-03-17T20:25:40.794Z,34.57
2019-03-17T20:28:11.667Z,36.62
2019-03-17T20:30:42.141Z,35.59
2019-03-17T20:33:12.447Z,35.57
2019-03-17T20:35:43.201Z,35.77
2019-03-17T20:38:13.785Z,36.96
2019-03-17T20:40:44.136Z,36.97
2019-03-17T20:43:23.731Z,36.23
2019-03-17T20:45:46.870Z,36.51
2019-03-17T20:48:17.523Z,36.75
2019-03-17T20:50:48.274Z,36.39
2019-03-17T20:53:18.929Z,38.33
2019-03-17T20:55:49.499Z,37.39
2019-03-17T20:58:20.276Z,38.06
2019-03-17T21:00:50.679Z,37.37
2019-03-17T21:03:21.545Z,37.45
2019-03-17T21:05:52.475Z,37.17
2019-03-17T21:08:22.864Z,37.59
2019-03-17T21:10:53.512Z,37.49
2019-03-17T21:13:24.239Z,36.84
2019-03-17T21:15:54.590Z,38.28
2019-03-17T21:18:25.238Z,38.16
2019-03-17T21:20:55.549Z,38.30
2019-03-17T21:23:25.946Z,38.52
2019-03-17T21:25:56.622Z,37.24
2019-03-17T21:28:27.823Z,37.42
2019-03-17T21:30:58.342Z,37.34
2019-03-17T21:33:29.039Z,38.28
2019-03-17T21:35:59.323Z,38.52
2019-03-17T21:38:29.638Z,38.06
2019-03-17T21:41:07.066Z,39.67
2019-03-17T21:43:32.386Z,40.39
2019-03-17T21:46:02.690Z,41.23
2019-03-17T21:48:33.447Z,41.96
2019-03-17T21:51:03.795Z,42.54
2019-03-17T21:53:34.207Z,42.59
2019-03-17T21:56:04.507Z,42.65
2019-03-17T21:58:34.836Z,42.47
2019-03-17T22:01:05.381Z,42.40
2019-03-17T22:03:35.908Z,43.21
2019-03-17T22:06:06.205Z,43.73
2019-03-17T22:08:36.909Z,44.79
2019-03-17T22:11:07.450Z,44.74
2019-03-17T22:13:37.789Z,44.06
2019-03-17T22:16:08.457Z,43.98
2019-03-17T22:18:39.723Z,43.88
2019-03-17T22:21:11.056Z,43.65
2019-03-17T22:23:41.556Z,44.01
2019-03-17T22:26:11.947Z,44.18
2019-03-17T22:28:42.672Z,44.96
2019-03-17T22:31:13.115Z,45.93
2019-03-17T22:33:43.664Z,45.43
2019-03-17T22:36:14.367Z,47.00
2019-03-17T22:38:45.013Z,47.16
2019-03-17T22:41:15.289Z,46.13
2019-03-17T22:43:45.964Z,47.29
2019-03-17T22:46:16.654Z,46.86
2019-03-17T22:48:47.133Z,47.17
2019-03-17T22:51:18.819Z,47.13
2019-03-17T22:53:49.095Z,47.97
2019-03-17T22:56:19.469Z,48.62
2019-03-17T22:58:49.865Z,48.89
2019-03-17T23:01:20.163Z,48.70
2019-03-17T23:03:50.827Z,47.37
2019-03-17T23:06:21.622Z,46.63
2019-03-17T23:08:52.174Z,47.65
2019-03-17T23:11:23.796Z,47.76
2019-03-17T23:13:54.628Z,47.50
2019-03-17T23:16:25.024Z,46.78
2019-03-17T23:18:55.365Z,46.98
2019-03-17T23:21:26.022Z,46.57
2019-03-17T23:23:56.630Z,46.60
2019-03-17T23:26:27.994Z,46.86
2019-03-17T23:28:58.786Z,46.88
2019-03-17T23:31:30.189Z,48.00
2019-03-17T23:34:00.610Z,48.55
2019-03-17T23:36:31.292Z,48.34
2019-03-17T23:39:02.069Z,48.38
2019-03-17T23:41:33.432Z,48.26
2019-03-17T23:44:04.196Z,49.06
2019-03-17T23:46:35.100Z,48.10
2019-03-17T23:49:05.424Z,47.39
2019-03-17T23:51:36.932Z,47.87
2019-03-17T23:54:07.756Z,46.95
2019-03-17T23:56:38.046Z,47.29
2019-03-17T23:59:08.721Z,48.33
